map of URS home
URS - Airport
Location
City:  Kursk, Kurskaya, Russian Federation (Russia)
Name:Vostochny Airport
ICAO:UUOK
IATA:URS

Details
Type:Airport (Aerodrome, Airfield)
Use:Public/Civil, Military, International (customs port of entry)
Latitude:5145'02"N (51.750556)
Longitude:3617'44"E (36.295556)
Elevation:686 ft (209 m)
Variation:9.28E (WMM2015 magnetic declination)
0.11 annual change
Runways:1
Longest:8202 × 131 ft (2500 × 40 m), paved

Time
Time Zone:UTC+3 (DST+4)

Weather
METAR:UUOK 161000Z VRB01MPS CAVOK 20/09 Q1029 R30/CLRD65 NOSIG RMK QFE753/1004

Related Locations
Nearby:
Farthest:CHT: 10833 mi / 17434 km
Waitangi [Tuuta], CIT, NZ

Find:

   beyond  
but within

Other Information
Maps:
NOTAMs:
Links:
Sources:

  
  • flag of Russian Federation (Russia)
  • flag of Kurskaya
  

Airport Diagram

Airport diagram for URS

Airport diagram PDF from AIP of the Russian Federation

Sectional Chart

Flight Planning
at skyvector.com

Satellite Image

Google Maps Satellite view

Yandex Maps Satellite view


 

Copyright © 2004-2018 Karl L. Swartz. All rights reserved.
The Great Circle Mapper name and logo are trademarks of the Great Circle Mapper.
All other trademarks mentioned herein belong to their respective owners.
Please see credits for attibutions and further copyright information.

  Follow gcmap on Facebook Follow gcmap on Twitter Follow gcmap on Google+ GCmap on LinkedIn

hCard Microformat

Geo Microformat